Time;durP1;ratioP1;P1;durP2;ratioP2;P2;SDS_P1;SDS_P2;PMS_P1;PMS_P2;Temp;Humidity;BMP_temperature;BMP_pressure;BME280_temperature;BME280_humidity;BME280_pressure;Samples;Min_cycle;Max_cycle;Signal;HPM_P1;HPM_P2
2023/03/12 00:00:06;;;;;;;9.23;4.47;;;;;;;8.20;99.91;148107.22;5050738;28;20201;-62
2023/03/12 00:02:33;;;;;;;14.30;5.30;;;;;;;8.18;99.35;148100.94;5050730;28;20683;-62
2023/03/12 00:05:00;;;;;;;4.57;3.97;;;;;;;8.20;98.15;148107.22;5050372;28;20192;-61
2023/03/12 00:07:27;;;;;;;6.03;3.73;;;;;;;8.11;99.22;148084.50;5050397;28;20188;-70
2023/03/12 00:09:54;;;;;;;8.50;3.23;;;;;;;8.08;99.05;148076.97;5032917;28;20627;-61
2023/03/12 00:12:21;;;;;;;18.43;4.60;;;;;;;8.13;99.02;148088.31;5050282;28;20194;-63
2023/03/12 00:14:49;;;;;;;17.90;7.73;;;;;;;8.10;98.59;148080.75;5050425;28;20181;-62
2023/03/12 00:17:16;;;;;;;9.60;4.80;;;;;;;8.06;98.34;148071.88;5050174;28;20229;-62
2023/03/12 00:19:44;;;;;;;9.17;2.90;;;;;;;7.99;98.43;148054.25;5050584;28;20186;-62
2023/03/12 00:22:10;;;;;;;8.57;2.20;;;;;;;7.98;98.44;148051.72;5050197;28;20185;-62
2023/03/12 00:24:37;;;;;;;9.00;1.90;;;;;;;8.05;97.71;148068.13;5050423;28;20189;-62
2023/03/12 00:27:04;;;;;;;13.10;2.00;;;;;;;7.97;97.77;148047.97;5050589;28;20189;-63
2023/03/12 00:29:31;;;;;;;4.73;1.53;;;;;;;7.93;97.98;148039.13;5050027;28;20194;-61
2023/03/12 00:31:59;;;;;;;4.83;2.03;;;;;;;7.96;97.11;148045.44;5049596;28;20204;-62
2023/03/12 00:34:26;;;;;;;15.57;2.43;;;;;;;7.95;97.82;148044.16;5050051;28;20210;-62
2023/03/12 00:36:53;;;;;;;5.33;3.53;;;;;;;7.96;98.49;148045.44;5050263;28;20693;-62
2023/03/12 00:39:20;;;;;;;7.30;2.43;;;;;;;7.95;99.18;148042.91;5049964;28;20220;-62
2023/03/12 00:41:46;;;;;;;3.87;2.03;;;;;;;7.96;98.57;148045.44;5050154;28;20193;-62
2023/03/12 00:44:13;;;;;;;2.37;1.87;;;;;;;7.77;99.50;147998.75;5049734;28;20189;-62
2023/03/12 00:46:40;;;;;;;10.70;1.40;;;;;;;7.88;98.13;148025.25;5050071;28;20549;-62
2023/03/12 00:49:09;;;;;;;7.67;1.47;;;;;;;7.87;98.19;148023.97;5049658;28;20199;-63
2023/03/12 00:51:36;;;;;;;7.60;1.33;;;;;;;7.74;97.70;147992.44;5049684;28;20185;-62
2023/03/12 00:54:03;;;;;;;4.27;1.30;;;;;;;7.88;97.26;148026.50;5049933;28;20224;-62
2023/03/12 00:56:30;;;;;;;5.37;1.50;;;;;;;7.87;96.59;148023.97;5049906;28;20236;-62
2023/03/12 00:58:57;;;;;;;12.67;1.83;;;;;;;7.84;97.47;148016.44;5049742;28;20186;-62
2023/03/12 01:01:24;;;;;;;1.93;1.70;;;;;;;7.70;98.22;147982.38;5049782;28;20196;-61
2023/03/12 01:03:51;;;;;;;10.30;1.83;;;;;;;7.85;98.62;148017.69;5050011;28;20617;-62
2023/03/12 01:06:20;;;;;;;12.93;1.97;;;;;;;7.73;98.36;147988.66;5049335;28;20238;-62
2023/03/12 01:08:47;;;;;;;7.10;1.50;;;;;;;7.78;99.36;148002.53;5049301;28;20182;-62
2023/03/12 01:11:14;;;;;;;7.37;1.60;;;;;;;7.83;99.04;148013.91;5049170;28;20190;-65
2023/03/12 01:13:42;;;;;;;4.67;1.57;;;;;;;7.86;98.84;148020.19;5049234;28;20213;-61
2023/03/12 01:16:09;;;;;;;5.40;1.70;;;;;;;7.51;98.92;147934.44;5049281;28;20717;-61
2023/03/12 01:18:36;;;;;;;7.17;1.77;;;;;;;7.78;99.73;148002.53;5049507;28;20568;-62
2023/03/12 01:21:03;;;;;;;6.83;1.90;;;;;;;7.79;98.75;148003.81;5049181;28;20292;-63
2023/03/12 01:23:32;;;;;;;5.13;1.77;;;;;;;7.88;98.28;148025.25;5049182;28;20197;-62
2023/03/12 01:25:59;;;;;;;4.37;1.67;;;;;;;7.82;97.85;148012.63;5049400;28;20213;-61
2023/03/12 01:28:26;;;;;;;2.27;2.07;;;;;;;7.83;97.61;148013.91;5049338;28;20628;-62
2023/03/12 01:30:53;;;;;;;4.37;1.80;;;;;;;7.88;96.42;148025.25;5049319;28;20568;-61
2023/03/12 01:33:21;;;;;;;3.03;1.50;;;;;;;7.75;96.20;147993.72;5048872;28;20196;-61
2023/03/12 01:35:48;;;;;;;2.23;1.50;;;;;;;7.87;95.71;148022.72;5049185;28;20185;-63
2023/03/12 01:38:17;;;;;;;7.90;1.73;;;;;;;7.62;96.31;147960.94;5049248;28;20273;-61
2023/03/12 01:40:46;;;;;;;4.30;1.57;;;;;;;7.68;96.89;147977.31;5049171;28;20265;-61
2023/03/12 01:43:24;;;;;;;2.97;1.70;;;;;;;7.69;98.23;147979.84;5048528;28;20186;-62
2023/03/12 01:46:06;;;;;;;4.47;1.70;;;;;;;7.68;99.22;147977.31;5049120;28;20226;-62
2023/03/12 01:48:38;;;;;;;2.10;1.87;;;;;;;7.69;100.00;147978.56;5049114;28;20178;-62
2023/03/12 01:51:06;;;;;;;4.83;2.13;;;;;;;7.49;100.00;147929.41;5048989;28;20208;-62
2023/03/12 01:53:33;;;;;;;5.80;2.20;;;;;;;7.42;100.00;147911.78;5048924;28;20189;-61
2023/03/12 01:56:02;;;;;;;2.50;2.30;;;;;;;7.37;100.00;147899.16;5048960;28;20651;-62
2023/03/12 01:58:32;;;;;;;7.17;2.23;;;;;;;7.26;100.00;147871.41;5048543;28;20212;-62
2023/03/12 02:00:59;;;;;;;4.70;1.77;;;;;;;7.15;100.00;147843.69;5048903;28;20541;-61
2023/03/12 02:03:26;;;;;;;2.97;2.77;;;;;;;7.06;100.00;147820.97;5048876;28;20201;-62
2023/03/12 02:05:56;;;;;;;6.03;2.60;;;;;;;7.05;100.00;147818.44;5048640;28;20188;-61
2023/03/12 02:08:24;;;;;;;3.47;2.50;;;;;;;6.97;100.00;147799.56;5048946;28;20624;-62
2023/03/12 02:10:51;;;;;;;6.63;2.77;;;;;;;6.94;100.00;147790.75;5048482;28;20220;-62
2023/03/12 02:13:20;;;;;;;4.17;2.60;;;;;;;6.92;100.00;147785.72;5048799;28;20686;-62
2023/03/12 02:15:47;;;;;;;2.47;2.33;;;;;;;6.81;100.00;147760.50;5048658;27;20548;-62
2023/03/12 02:18:16;;;;;;;7.93;2.80;;;;;;;6.77;100.00;147750.44;5048842;28;20232;-61
2023/03/12 02:20:52;;;;;;;8.53;2.87;;;;;;;6.73;100.00;147740.34;5048419;28;20197;-61
2023/03/12 02:23:28;;;;;;;3.50;3.03;;;;;;;6.68;100.00;147726.47;5048547;28;20208;-62
2023/03/12 02:25:57;;;;;;;5.03;2.77;;;;;;;6.73;100.00;147740.34;5048620;28;20193;-62
2023/03/12 02:28:28;;;;;;;8.40;3.50;;;;;;;6.58;100.00;147702.53;5048595;28;20207;-62
2023/03/12 02:31:00;;;;;;;5.10;2.60;;;;;;;6.74;100.00;147741.63;5048447;28;20185;-62
2023/03/12 02:33:27;;;;;;;6.57;2.90;;;;;;;6.76;100.00;147747.91;5048641;28;20552;-61
2023/03/12 02:35:55;;;;;;;3.30;2.63;;;;;;;6.62;100.00;147712.59;5048545;28;20188;-62
2023/03/12 02:38:40;;;;;;;6.10;3.13;;;;;;;6.67;100.00;147723.94;5048103;28;20205;-62
2023/03/12 02:41:15;;;;;;;5.17;3.20;;;;;;;6.81;100.00;147760.50;5030431;28;20200;-61
2023/03/12 02:43:44;;;;;;;8.37;3.37;;;;;;;6.86;100.00;147773.13;5048516;28;20724;-63
2023/03/12 02:46:12;;;;;;;3.30;3.10;;;;;;;6.96;100.00;147795.81;5048441;28;20196;-65
2023/03/12 02:48:39;;;;;;;6.53;2.83;;;;;;;6.93;100.00;147788.22;5048074;28;20197;-62
2023/03/12 02:51:06;;;;;;;6.20;3.40;;;;;;;6.89;100.00;147779.41;5048267;28;20623;-62
2023/03/12 02:53:33;;;;;;;7.00;3.40;;;;;;;6.84;100.00;147768.06;5048750;28;20190;-62
2023/03/12 02:56:00;;;;;;;4.60;3.10;;;;;;;6.81;100.00;147759.25;5051594;28;20189;-63
2023/03/12 02:58:28;;;;;;;6.10;3.67;;;;;;;6.72;100.00;147736.56;5051663;28;20633;-61
2023/03/12 03:00:55;;;;;;;7.43;3.30;;;;;;;6.74;100.00;147742.88;5051460;28;20200;-62
2023/03/12 03:03:22;;;;;;;11.90;3.37;;;;;;;6.61;100.00;147710.13;5051664;28;20205;-62
2023/03/12 03:05:50;;;;;;;4.03;3.63;;;;;;;6.76;100.00;147746.63;5051666;28;20216;-63
2023/03/12 03:08:17;;;;;;;8.47;3.03;;;;;;;6.75;100.00;147744.09;5051246;28;20190;-62
2023/03/12 03:10:44;;;;;;;7.33;3.60;;;;;;;6.76;100.00;147747.91;5051236;28;20192;-63
2023/03/12 03:13:11;;;;;;;4.70;3.37;;;;;;;6.69;100.00;147730.28;5051273;28;20178;-62
2023/03/12 03:15:39;;;;;;;4.17;3.07;;;;;;;6.64;100.00;147716.41;5051483;28;20219;-61
2023/03/12 03:18:06;;;;;;;3.77;3.40;;;;;;;6.59;100.00;147705.06;5050909;28;20233;-62
2023/03/12 03:20:33;;;;;;;6.90;3.47;;;;;;;6.40;100.00;147657.19;5051487;28;20569;-62
2023/03/12 03:23:00;;;;;;;5.93;3.50;;;;;;;6.38;100.00;147652.13;5051181;28;20200;-61
2023/03/12 03:25:27;;;;;;;7.13;3.13;;;;;;;6.32;100.00;147637.06;5051330;28;20205;-61
2023/03/12 03:27:54;;;;;;;5.83;2.93;;;;;;;6.33;100.00;147639.53;5051094;28;20667;-62
2023/03/12 03:30:21;;;;;;;3.57;3.30;;;;;;;6.09;100.00;147579.09;5050847;28;20197;-62
2023/03/12 03:32:50;;;;;;;3.87;3.33;;;;;;;6.19;100.00;147604.31;5051249;28;20193;-63
2023/03/12 03:35:18;;;;;;;4.03;3.73;;;;;;;6.13;100.00;147589.16;5051131;28;20651;-61
2023/03/12 03:37:45;;;;;;;7.60;3.47;;;;;;;6.04;100.00;147566.50;5050867;28;20209;-63
2023/03/12 03:40:12;;;;;;;5.70;3.63;;;;;;;6.06;100.00;147571.56;5050771;28;20242;-62
2023/03/12 03:42:40;;;;;;;6.40;2.97;;;;;;;6.04;100.00;147567.75;5051120;28;20693;-62
2023/03/12 03:45:09;;;;;;;3.97;3.47;;;;;;;6.01;100.00;147558.94;5050941;28;20188;-61
2023/03/12 03:47:36;;;;;;;7.50;3.90;;;;;;;5.88;100.00;147527.47;5050884;28;20559;-63
2023/03/12 03:50:06;;;;;;;4.80;3.30;;;;;;;5.92;100.00;147538.81;5050946;28;20262;-62
2023/03/12 03:52:33;;;;;;;7.60;4.13;;;;;;;5.90;100.00;147532.47;5050945;28;20620;-61
2023/03/12 03:55:00;;;;;;;3.50;3.20;;;;;;;5.84;100.00;147517.34;5050593;28;20193;-62
2023/03/12 03:57:27;;;;;;;8.80;3.67;;;;;;;5.72;100.00;147488.41;5050841;28;20552;-62
2023/03/12 03:59:54;;;;;;;10.90;4.00;;;;;;;5.85;100.00;147521.13;5050444;28;20185;-63
2023/03/12 04:02:22;;;;;;;7.67;3.93;;;;;;;5.61;100.00;147460.69;5050433;28;20189;-66
2023/03/12 04:04:49;;;;;;;4.33;3.53;;;;;;;5.76;100.00;147497.22;5050519;28;20189;-62
2023/03/12 04:07:17;;;;;;;4.53;3.80;;;;;;;5.90;100.00;147533.75;5050320;28;20185;-61
2023/03/12 04:09:44;;;;;;;8.00;3.87;;;;;;;5.92;100.00;147538.81;5050328;28;20181;-62
2023/03/12 04:12:11;;;;;;;4.57;4.07;;;;;;;5.97;100.00;147551.41;5050679;28;20245;-62
2023/03/12 04:14:40;;;;;;;12.60;4.67;;;;;;;5.94;100.00;147543.81;5050408;28;20196;-61
2023/03/12 04:17:08;;;;;;;6.07;3.83;;;;;;;5.97;100.00;147551.41;5050076;28;20232;-61
2023/03/12 04:19:35;;;;;;;7.50;3.80;;;;;;;5.95;100.00;147545.09;5050216;28;20205;-63
2023/03/12 04:22:02;;;;;;;4.10;3.90;;;;;;;5.79;100.00;147506.00;5050188;28;20189;-63
2023/03/12 04:24:30;;;;;;;4.27;3.83;;;;;;;5.89;100.00;147531.25;5050414;28;20596;-63
2023/03/12 04:26:57;;;;;;;6.80;3.73;;;;;;;6.12;100.00;147586.63;5050089;28;20181;-63
2023/03/12 04:29:24;;;;;;;9.87;4.07;;;;;;;6.03;100.00;147563.97;5050027;28;20192;-61
2023/03/12 04:31:51;;;;;;;14.57;4.73;;;;;;;6.01;100.00;147558.94;5050312;28;20185;-62
2023/03/12 04:34:18;;;;;;;8.17;3.73;;;;;;;6.24;100.00;147618.13;5050297;28;20194;-63
2023/03/12 04:36:46;;;;;;;10.07;3.87;;;;;;;6.04;100.00;147567.75;5050257;28;20185;-63
2023/03/12 04:39:14;;;;;;;7.53;3.70;;;;;;;6.21;100.00;147610.56;5049932;28;20211;-62
2023/03/12 04:41:42;;;;;;;9.60;3.90;;;;;;;6.19;100.00;147605.56;5050221;28;20190;-62
2023/03/12 04:44:09;;;;;;;6.00;3.57;;;;;;;6.16;100.00;147597.97;5049838;28;20182;-62
2023/03/12 04:46:36;;;;;;;13.83;4.40;;;;;;;5.85;100.00;147521.13;5049819;28;20192;-63
2023/03/12 04:49:03;;;;;;;3.83;3.50;;;;;;;5.97;100.00;147551.41;5050009;28;20192;-63
2023/03/12 04:51:31;;;;;;;5.20;4.27;;;;;;;6.05;100.00;147569.03;5049743;28;20186;-63
2023/03/12 04:53:58;;;;;;;4.60;3.87;;;;;;;6.13;100.00;147590.44;5050016;28;20714;-61
2023/03/12 04:56:25;;;;;;;7.70;3.47;;;;;;;6.19;100.00;147604.31;5049620;28;20215;-61
2023/03/12 04:58:53;;;;;;;6.07;3.43;;;;;;;6.23;100.00;147615.63;5049529;28;20205;-62
2023/03/12 05:01:24;;;;;;;11.00;4.37;;;;;;;6.36;100.00;147648.41;5049617;28;20190;-61
2023/03/12 05:03:52;;;;;;;4.80;3.43;;;;;;;6.51;100.00;147684.91;5049867;28;20205;-61
2023/03/12 05:06:19;;;;;;;6.43;3.33;;;;;;;6.91;100.00;147784.47;5049475;28;20190;-61
2023/03/12 05:08:46;;;;;;;5.83;3.60;;;;;;;7.59;100.00;147953.38;5049793;28;20186;-63
2023/03/12 05:11:14;;;;;;;4.63;3.53;;;;;;;7.68;100.00;147977.31;5049327;28;20193;-61
2023/03/12 05:13:41;;;;;;;8.97;3.77;;;;;;;7.86;100.00;148020.19;5049409;28;20190;-61
2023/03/12 05:16:10;;;;;;;3.87;3.43;;;;;;;8.37;100.00;148148.91;5048489;28;20243;-63
2023/03/12 05:18:37;;;;;;;6.57;3.57;;;;;;;8.57;100.00;148199.38;5049594;28;20205;-62
2023/03/12 05:21:08;;;;;;;6.73;2.90;;;;;;;8.67;100.00;148223.38;5049300;28;20185;-62
2023/03/12 05:23:38;;;;;;;8.13;3.60;;;;;;;8.76;100.00;148244.81;5049209;28;20196;-62
2023/03/12 05:26:05;;;;;;;5.83;3.70;;;;;;;8.70;100.00;148232.19;5049108;28;20255;-63
2023/03/12 05:28:32;;;;;;;4.03;3.63;;;;;;;8.61;100.00;148209.47;5049438;28;20567;-63
2023/03/12 05:31:00;;;;;;;10.37;3.50;;;;;;;8.70;100.00;148230.91;5049184;28;20259;-63
2023/03/12 05:33:28;;;;;;;7.70;3.33;;;;;;;8.84;100.00;148266.28;5049432;28;20185;-63
2023/03/12 05:35:55;;;;;;;6.53;3.60;;;;;;;9.01;97.28;148309.19;5049036;28;20185;-63
2023/03/12 05:38:22;;;;;;;12.47;7.40;;;;;;;8.81;98.88;148257.44;5048981;28;20212;-61
2023/03/12 05:40:53;;;;;;;13.73;6.77;;;;;;;8.44;100.00;148166.59;5049303;28;20280;-62
2023/03/12 05:43:20;;;;;;;4.73;4.33;;;;;;;8.12;100.00;148085.78;5049307;28;20189;-62
2023/03/12 05:45:47;;;;;;;4.90;4.50;;;;;;;7.78;100.00;148002.53;5049009;28;20193;-62
2023/03/12 05:48:14;;;;;;;6.50;3.83;;;;;;;7.73;100.00;147989.91;5048846;28;20186;-62
2023/03/12 05:50:43;;;;;;;11.70;6.10;;;;;;;7.92;100.00;148036.59;5048844;28;20190;-61
2023/03/12 05:53:11;;;;;;;5.90;4.47;;;;;;;7.68;100.00;147977.31;5049019;28;20504;-62
2023/03/12 05:55:39;;;;;;;11.17;4.73;;;;;;;7.79;100.00;148005.06;5048794;28;20196;-61
2023/03/12 05:58:07;;;;;;;7.73;5.03;;;;;;;7.55;100.00;147944.56;5048973;28;20186;-62
2023/03/12 06:00:36;;;;;;;5.93;4.90;;;;;;;7.63;100.00;147964.72;5048654;28;20190;-61
2023/03/12 06:03:04;;;;;;;8.63;5.37;;;;;;;7.66;100.00;147972.28;5048983;28;20197;-62
2023/03/12 06:05:31;;;;;;;10.40;4.80;;;;;;;8.06;100.00;148070.69;5049080;28;20770;-61
2023/03/12 06:07:59;;;;;;;10.00;5.33;;;;;;;8.51;100.00;148184.25;5048527;28;20182;-62
2023/03/12 06:10:26;;;;;;;6.07;3.70;;;;;;;8.53;100.00;148189.28;5048495;28;20182;-62
2023/03/12 06:12:53;;;;;;;4.97;3.10;;;;;;;8.60;99.23;148206.97;5048481;28;20192;-61
2023/03/12 06:15:20;;;;;;;3.37;3.07;;;;;;;8.54;99.26;148191.81;5048915;28;20559;-62
2023/03/12 06:17:47;;;;;;;5.80;3.27;;;;;;;8.58;98.17;148201.91;5048380;28;20229;-62
2023/03/12 06:20:15;;;;;;;3.83;3.03;;;;;;;8.91;96.41;148282.72;5048528;28;20232;-62
2023/03/12 06:22:42;;;;;;;3.17;2.70;;;;;;;9.11;94.88;148333.19;5048506;28;20198;-61
2023/03/12 06:25:10;;;;;;;3.40;3.30;;;;;;;9.12;92.64;148335.75;5048753;28;20189;-62
2023/03/12 06:27:37;;;;;;;8.77;3.17;;;;;;;9.19;92.06;148353.41;5048390;28;20192;-62
2023/03/12 06:30:05;;;;;;;3.43;3.20;;;;;;;8.97;92.08;148297.84;5051350;28;20213;-62
2023/03/12 06:32:32;;;;;;;9.50;3.10;;;;;;;9.09;91.75;148328.13;5052153;28;20192;-61
2023/03/12 06:35:00;;;;;;;4.03;3.73;;;;;;;9.37;91.01;148398.88;5052296;28;20185;-62
2023/03/12 06:37:27;;;;;;;3.57;3.20;;;;;;;9.40;89.28;148405.16;5051651;28;20189;-62
2023/03/12 06:39:54;;;;;;;3.83;3.50;;;;;;;9.36;89.57;148395.06;5051941;28;20261;-62
2023/03/12 06:42:22;;;;;;;3.37;3.07;;;;;;;9.73;87.71;148487.25;5051676;28;20190;-62
2023/03/12 06:44:49;;;;;;;5.23;3.20;;;;;;;10.25;84.71;148617.44;5052128;28;20537;-62
2023/03/12 06:47:16;;;;;;;3.73;3.27;;;;;;;10.78;81.02;148750.13;5052019;28;20189;-63
2023/03/12 06:49:43;;;;;;;3.47;3.17;;;;;;;10.73;79.65;148737.53;5051963;28;20617;-62
2023/03/12 06:52:10;;;;;;;5.60;2.63;;;;;;;10.84;79.63;148766.59;5051934;28;20529;-62
2023/03/12 06:54:37;;;;;;;5.87;3.13;;;;;;;11.08;78.00;148826.00;5051835;28;20182;-62
2023/03/12 06:57:04;;;;;;;4.23;2.73;;;;;;;10.96;76.76;148795.66;5051591;28;20185;-62
2023/03/12 06:59:32;;;;;;;6.27;2.90;;;;;;;11.15;75.91;148842.47;5051702;28;20213;-62
2023/03/12 07:01:59;;;;;;;3.30;2.47;;;;;;;11.34;75.18;148890.50;5051744;28;20208;-63
2023/03/12 07:04:26;;;;;;;4.37;3.10;;;;;;;11.48;73.76;148924.69;5051904;28;20284;-62
2023/03/12 07:06:53;;;;;;;3.40;3.10;;;;;;;11.57;73.15;148948.72;5051939;28;20664;-62
2023/03/12 07:09:20;;;;;;;3.30;2.50;;;;;;;11.55;73.47;148942.38;5051336;28;20222;-61
2023/03/12 07:11:47;;;;;;;2.80;2.57;;;;;;;11.52;73.03;148934.78;5051614;28;20564;-62
2023/03/12 07:14:14;;;;;;;3.30;2.47;;;;;;;11.64;72.65;148965.16;5051557;28;20272;-62
2023/03/12 07:16:42;;;;;;;6.00;2.80;;;;;;;12.42;69.11;149160.09;5051199;27;20229;-63
2023/03/12 07:19:09;;;;;;;5.57;2.90;;;;;;;12.49;68.19;149179.06;5051745;28;20232;-62
2023/03/12 07:21:36;;;;;;;4.47;2.57;;;;;;;12.33;68.86;149139.84;5051611;28;20215;-62
2023/03/12 07:24:05;;;;;;;4.37;3.00;;;;;;;12.42;68.46;149161.38;5051505;28;20194;-62
2023/03/12 07:26:33;;;;;;;8.90;3.17;;;;;;;12.45;67.69;149167.69;5051190;28;20238;-62
2023/03/12 07:29:01;;;;;;;5.83;2.70;;;;;;;12.36;67.29;149147.44;5051073;28;20242;-61
2023/03/12 07:31:28;;;;;;;5.60;2.90;;;;;;;12.18;67.20;149101.84;5051069;28;20189;-60
2023/03/12 07:33:56;;;;;;;3.77;2.70;;;;;;;11.99;67.89;149053.78;5051282;28;20182;-62
2023/03/12 07:36:23;;;;;;;4.87;3.10;;;;;;;11.56;69.33;148944.91;5051325;28;20663;-62
2023/03/12 07:38:50;;;;;;;4.53;2.57;;;;;;;11.71;69.86;148982.88;5050661;28;20212;-62
2023/03/12 07:41:16;;;;;;;4.63;2.40;;;;;;;11.34;70.68;148891.78;5050602;28;20284;-61
2023/03/12 07:43:43;;;;;;;5.00;2.60;;;;;;;11.21;71.28;148858.91;5051013;28;20185;-61
2023/03/12 07:46:10;;;;;;;3.70;3.03;;;;;;;10.99;71.79;148804.50;5050935;28;20277;-62
2023/03/12 07:48:37;;;;;;;3.63;2.93;;;;;;;10.89;72.48;148779.25;5050774;28;20189;-62
2023/03/12 07:51:06;;;;;;;5.87;2.70;;;;;;;10.85;71.75;148769.13;5050818;28;20276;-62
2023/03/12 07:53:33;;;;;;;7.77;2.97;;;;;;;10.68;73.36;148724.88;5050758;28;20189;-61
2023/03/12 07:56:00;;;;;;;2.57;2.30;;;;;;;10.55;72.92;148693.28;5050802;28;20192;-60
2023/03/12 07:58:27;;;;;;;3.97;2.60;;;;;;;10.37;75.04;148647.75;5050600;28;20192;-61
2023/03/12 08:00:55;;;;;;;3.53;3.13;;;;;;;10.27;76.97;148622.53;5050566;28;20212;-63
2023/03/12 08:03:22;;;;;;;3.87;2.67;;;;;;;10.33;76.32;148637.66;5050989;28;20202;-62
2023/03/12 08:05:57;;;;;;;3.33;2.90;;;;;;;10.52;76.70;148685.72;5050767;28;20194;-62
2023/03/12 08:08:25;;;;;;;3.77;2.53;;;;;;;10.50;76.47;148681.91;5050848;28;20628;-63
2023/03/12 08:10:52;;;;;;;2.57;2.47;;;;;;;10.63;76.14;148712.22;5050788;28;20285;-62
2023/03/12 08:13:19;;;;;;;8.97;2.73;;;;;;;10.70;75.37;148729.91;5050659;28;20221;-62
2023/03/12 08:15:46;;;;;;;2.57;2.47;;;;;;;10.53;74.45;148689.47;5050566;28;20190;-61
2023/03/12 08:18:13;;;;;;;4.63;3.13;;;;;;;10.70;75.60;148731.19;5050475;28;20196;-61
2023/03/12 08:20:40;;;;;;;3.17;2.93;;;;;;;10.64;74.79;148714.78;5050431;28;20230;-62
2023/03/12 08:23:07;;;;;;;3.33;2.80;;;;;;;10.69;74.93;148727.44;5050675;28;20194;-61
2023/03/12 08:25:35;;;;;;;4.30;2.80;;;;;;;10.71;74.64;148733.72;5050268;28;20189;-63
2023/03/12 08:28:03;;;;;;;2.90;2.70;;;;;;;10.80;75.02;148755.22;5050163;28;20221;-61
2023/03/12 08:30:30;;;;;;;2.63;2.53;;;;;;;10.91;72.33;148783.00;5050522;28;20242;-62
2023/03/12 08:32:57;;;;;;;5.30;2.37;;;;;;;10.88;72.41;148775.44;5050477;28;20190;-61
2023/03/12 08:35:24;;;;;;;2.87;2.63;;;;;;;11.00;71.66;148805.78;5050310;28;20580;-61
2023/03/12 08:37:53;;;;;;;4.40;2.47;;;;;;;10.82;71.38;148760.31;5050013;28;20182;-61
2023/03/12 08:40:20;;;;;;;6.23;2.73;;;;;;;10.78;71.62;148751.41;5050195;28;20217;-62
2023/03/12 08:42:48;;;;;;;2.83;2.57;;;;;;;10.77;71.00;148747.66;5050230;28;20213;-62
2023/03/12 08:45:15;;;;;;;2.90;2.70;;;;;;;10.71;72.17;148732.44;5049854;28;20193;-62
2023/03/12 08:47:43;;;;;;;4.70;2.97;;;;;;;10.78;71.49;148751.41;5050158;28;20506;-62
2023/03/12 08:50:12;;;;;;;5.20;2.97;;;;;;;10.82;72.05;148760.31;5050063;28;20189;-62
2023/03/12 08:52:39;;;;;;;6.77;2.87;;;;;;;10.73;72.33;148737.53;5049011;28;20197;-63
2023/03/12 08:55:07;;;;;;;6.20;2.53;;;;;;;10.70;72.95;148729.91;5049910;28;20189;-61
2023/03/12 08:57:34;;;;;;;3.40;3.10;;;;;;;10.72;72.43;148735.00;5050091;28;20197;-61
2023/03/12 09:00:04;;;;;;;3.73;2.87;;;;;;;10.90;72.37;148780.53;5049593;28;20205;-62
2023/03/12 09:02:31;;;;;;;6.27;3.13;;;;;;;10.97;72.06;148799.47;5050015;28;20205;-62
2023/03/12 09:04:58;;;;;;;2.73;2.60;;;;;;;10.94;72.12;148790.63;5049542;28;20192;-61
2023/03/12 09:07:25;;;;;;;4.80;3.00;;;;;;;10.86;72.59;148771.63;5049597;28;20189;-63
2023/03/12 09:09:54;;;;;;;3.43;2.60;;;;;;;10.99;72.08;148803.25;5049395;28;20182;-62
2023/03/12 09:12:21;;;;;;;5.37;2.90;;;;;;;10.92;71.37;148785.56;5049762;28;20537;-61
2023/03/12 09:14:48;;;;;;;5.67;3.33;;;;;;;10.88;71.90;148776.72;5049756;28;20209;-62
2023/03/12 09:17:16;;;;;;;4.07;2.70;;;;;;;10.91;72.14;148783.00;5049203;28;20336;-62
2023/03/12 09:19:43;;;;;;;2.77;2.60;;;;;;;11.09;72.79;148827.28;5049456;28;20217;-62
2023/03/12 09:22:10;;;;;;;3.47;3.27;;;;;;;11.46;70.76;148922.13;5049502;28;20278;-61
2023/03/12 09:24:38;;;;;;;2.50;2.40;;;;;;;11.56;70.35;148944.91;5049334;28;20185;-63
2023/03/12 09:27:04;;;;;;;3.10;2.80;;;;;;;11.81;69.22;149009.47;5049544;28;20208;-61
2023/03/12 09:29:32;;;;;;;2.93;2.73;;;;;;;11.88;68.88;149025.97;5049254;28;20186;-62
2023/03/12 09:31:59;;;;;;;3.93;3.20;;;;;;;12.09;68.09;149079.09;5049425;28;20221;-62
2023/03/12 09:34:27;;;;;;;3.17;2.87;;;;;;;12.04;66.87;149066.44;5049455;28;20211;-63
2023/03/12 09:36:54;;;;;;;4.70;2.47;;;;;;;12.25;65.24;149119.59;5049079;28;20192;-62
2023/03/12 09:39:21;;;;;;;2.47;2.30;;;;;;;12.56;64.79;149195.56;5049240;28;20182;-62
2023/03/12 09:41:49;;;;;;;6.13;2.63;;;;;;;12.79;64.19;149255.06;5049309;28;20659;-61
2023/03/12 09:44:32;;;;;;;3.90;2.60;;;;;;;12.85;63.62;149269.00;5049186;28;20658;-61
2023/03/12 09:47:03;;;;;;;10.37;2.80;;;;;;;12.88;61.86;149276.56;5048974;28;20186;-62
2023/03/12 09:49:36;;;;;;;5.07;3.03;;;;;;;12.80;63.47;149256.31;5049170;28;20663;-61
2023/03/12 09:52:08;;;;;;;2.47;2.37;;;;;;;12.89;61.92;149277.84;5049210;28;20186;-62
2023/03/12 09:54:40;;;;;;;3.17;2.53;;;;;;;13.02;61.89;149312.06;5049134;28;20563;-61
2023/03/12 09:57:12;;;;;;;2.63;2.47;;;;;;;13.39;61.54;149403.28;5048793;28;20201;-62
2023/03/12 09:59:39;;;;;;;2.43;2.33;;;;;;;13.60;60.06;149457.75;5048966;28;20691;-61
2023/03/12 10:02:27;;;;;;;4.13;2.13;;;;;;;13.69;60.67;149479.31;5048684;28;20649;-62
2023/03/12 10:05:00;;;;;;;2.43;2.20;;;;;;;13.61;59.36;149459.03;5048704;28;20201;-62
2023/03/12 10:07:32;;;;;;;4.50;2.53;;;;;;;13.73;60.48;149489.44;5048732;28;20189;-61
2023/03/12 10:10:12;;;;;;;8.23;2.23;;;;;;;13.94;59.31;149542.66;5048582;28;20181;-61
2023/03/12 10:12:56;;;;;;;3.33;2.30;;;;;;;14.05;58.98;149570.53;5048686;28;20181;-62
2023/03/12 10:15:37;;;;;;;2.67;2.30;;;;;;;13.96;57.59;149547.72;5048440;28;20254;-62
2023/03/12 10:18:16;;;;;;;5.60;2.60;;;;;;;14.11;58.12;149585.78;5048407;28;20238;-62
2023/03/12 10:21:06;;;;;;;3.17;2.50;;;;;;;14.12;57.30;149587.03;5048760;28;20216;-61
2023/03/12 10:23:46;;;;;;;4.70;2.70;;;;;;;14.18;57.18;149603.50;5048610;28;20194;-62
2023/03/12 10:26:19;;;;;;;3.73;2.40;;;;;;;14.54;56.43;149692.31;5048439;28;20268;-62
2023/03/12 10:28:50;;;;;;;3.87;2.50;;;;;;;14.71;55.76;149735.44;5048677;28;20188;-62
2023/03/12 10:31:22;;;;;;;6.93;2.37;;;;;;;14.62;56.09;149712.59;5048282;28;20192;-61
2023/03/12 10:33:55;;;;;;;3.47;2.40;;;;;;;14.46;56.68;149673.31;5048442;28;20189;-61
2023/03/12 10:36:27;;;;;;;3.13;2.60;;;;;;;14.61;55.20;149711.31;5048751;28;20670;-61
2023/03/12 10:38:54;;;;;;;2.67;2.47;;;;;;;14.69;55.33;149730.31;5048512;28;20201;-63
2023/03/12 10:41:25;;;;;;;3.13;2.50;;;;;;;14.81;55.26;149760.75;5048584;28;20599;-62
2023/03/12 10:43:54;;;;;;;2.70;2.50;;;;;;;14.79;54.46;149754.44;5048158;28;20200;-61
2023/03/12 10:46:40;;;;;;;2.80;2.63;;;;;;;14.64;54.32;149717.63;5048294;28;20197;-61
2023/03/12 10:49:40;;;;;;;2.70;2.50;;;;;;;14.26;54.13;149621.28;5031675;28;20208;-62
2023/03/12 10:52:16;;;;;;;4.57;2.70;;;;;;;14.12;55.71;149588.31;5069038;28;20185;-61
2023/03/12 10:54:44;;;;;;;2.63;2.47;;;;;;;13.80;56.29;149507.16;5069114;28;20206;-61
2023/03/12 10:57:14;;;;;;;5.60;2.40;;;;;;;13.98;56.38;149552.81;5069043;28;20197;-61
2023/03/12 10:59:43;;;;;;;2.40;2.23;;;;;;;13.80;57.63;149507.16;5069029;28;20251;-61
2023/03/12 11:02:36;;;;;;;2.93;2.70;;;;;;;13.72;57.92;149488.16;5069222;28;20181;-61
2023/03/12 11:05:19;;;;;;;5.27;2.90;;;;;;;13.64;57.55;149466.63;5069047;28;20681;-62
2023/03/12 11:07:48;;;;;;;3.07;2.87;;;;;;;13.57;56.84;149448.91;5069205;28;20196;-62
2023/03/12 11:10:19;;;;;;;3.37;3.27;;;;;;;13.59;56.83;149453.94;5068838;28;20571;-62
2023/03/12 11:13:01;;;;;;;3.37;3.07;;;;;;;13.47;56.80;149424.81;5068937;28;20185;-61
2023/03/12 11:15:36;;;;;;;2.40;2.20;;;;;;;13.33;57.69;149389.34;5071008;28;20686;-63
2023/03/12 11:18:26;;;;;;;5.20;2.83;;;;;;;13.23;57.90;149365.28;5072459;28;20239;-61
2023/03/12 11:20:55;;;;;;;2.80;2.70;;;;;;;13.57;57.53;149448.91;5072484;28;20791;-63
2023/03/12 11:23:27;;;;;;;2.60;2.40;;;;;;;13.75;56.56;149494.47;5058908;28;20663;-61
2023/03/12 11:26:00;;;;;;;2.70;2.50;;;;;;;14.01;56.69;149560.41;5051117;28;20192;-63
2023/03/12 11:28:37;;;;;;;3.30;2.70;;;;;;;14.12;56.34;149588.31;5033258;28;20185;-61
2023/03/12 11:31:09;;;;;;;2.93;2.83;;;;;;;14.11;56.70;149584.50;5051294;28;20182;-61
2023/03/12 11:33:36;;;;;;;4.20;2.63;;;;;;;13.81;55.73;149508.44;5051059;28;20185;-61